09/26 11:00 更新

弱い雨が降っている
弱い霧雨が降っている
500ftに雲が少し
700ftに雲が多い
1,500ftに雲が多い

地上風: 340°4kt
(310°~ 020°で変動)

上空風
13,000ft: 未計測
10,000ft: 230°15kt
 7,000ft: 110°8kt
 3,000ft: 50°13kt

地上: 17℃
上空: 4.5℃

日没: 17:33

実況天気図


予想天気図


RJTJ 260200Z 34004KT 310V020 8000 -RADZ FEW005 BKN007 BKN015 17/16 Q1019 RMK 1ST005 5ST007 6SC015 A3010 1ST005 OVER AD=

GPV気象予報
気象庁
日本気象協会

玉淀ダム放流量(1,000m3/sを超えた7時間後にDZ冠水)
太郎衛門橋テレメータ水位(11mでDZ冠水)

skydive.jp